sensor_id;sensor_type;location;lat;lon;timestamp;pressure;altitude;pressure_sealevel;temperature;humidity
17781;BME280;8498;52.516;13.790;2022-09-24T00:01:35;100936.91;;;12.53;78.52
17781;BME280;8498;52.516;13.790;2022-09-24T00:06:57;100927.53;;;12.47;78.59
17781;BME280;8498;52.516;13.790;2022-09-24T00:12:20;100938.44;;;12.44;79.13
17781;BME280;8498;52.516;13.790;2022-09-24T00:17:43;100924.25;;;12.43;78.78
17781;BME280;8498;52.516;13.790;2022-09-24T00:23:06;100926.28;;;12.40;78.48
17781;BME280;8498;52.516;13.790;2022-09-24T00:28:29;100925.63;;;12.36;78.96
17781;BME280;8498;52.516;13.790;2022-09-24T00:33:52;100926.09;;;12.30;78.94
17781;BME280;8498;52.516;13.790;2022-09-24T00:39:15;100920.22;;;12.25;79.04
17781;BME280;8498;52.516;13.790;2022-09-24T00:55:33;100901.63;;;12.12;79.14
17781;BME280;8498;52.516;13.790;2022-09-24T01:01:03;100905.44;;;12.08;79.15
17781;BME280;8498;52.516;13.790;2022-09-24T01:06:26;100898.53;;;12.06;79.45
17781;BME280;8498;52.516;13.790;2022-09-24T01:34:41;100880.44;;;11.98;79.85
17781;BME280;8498;52.516;13.790;2022-09-24T01:40:06;100878.41;;;12.02;79.70
17781;BME280;8498;52.516;13.790;2022-09-24T01:45:30;100876.72;;;12.01;80.09
17781;BME280;8498;52.516;13.790;2022-09-24T01:51:01;100879.28;;;12.02;79.72
17781;BME280;8498;52.516;13.790;2022-09-24T01:56:31;100869.69;;;12.00;80.11
17781;BME280;8498;52.516;13.790;2022-09-24T02:02:09;100869.47;;;12.03;80.04
17781;BME280;8498;52.516;13.790;2022-09-24T02:07:41;100861.34;;;12.04;80.06
17781;BME280;8498;52.516;13.790;2022-09-24T02:13:08;100853.25;;;12.06;80.43
17781;BME280;8498;52.516;13.790;2022-09-24T02:18:39;100852.41;;;12.05;80.50
17781;BME280;8498;52.516;13.790;2022-09-24T02:24:07;100853.03;;;12.09;80.57
17781;BME280;8498;52.516;13.790;2022-09-24T02:29:32;100844.09;;;12.10;80.71
17781;BME280;8498;52.516;13.790;2022-09-24T02:34:58;100838.78;;;12.10;80.67
17781;BME280;8498;52.516;13.790;2022-09-24T02:40:23;100844.00;;;12.11;81.04
17781;BME280;8498;52.516;13.790;2022-09-24T02:45:45;100833.94;;;12.15;80.94
17781;BME280;8498;52.516;13.790;2022-09-24T02:51:08;100838.31;;;12.16;81.11
17781;BME280;8498;52.516;13.790;2022-09-24T02:56:31;100834.47;;;12.20;81.08
17781;BME280;8498;52.516;13.790;2022-09-24T03:01:53;100833.31;;;12.24;80.93
17781;BME280;8498;52.516;13.790;2022-09-24T03:07:16;100833.06;;;12.27;81.11
17781;BME280;8498;52.516;13.790;2022-09-24T03:12:38;100822.53;;;12.26;81.33
17781;BME280;8498;52.516;13.790;2022-09-24T03:18:03;100819.75;;;12.27;81.32
17781;BME280;8498;52.516;13.790;2022-09-24T03:23:26;100816.97;;;12.29;81.41
17781;BME280;8498;52.516;13.790;2022-09-24T03:28:49;100817.63;;;12.32;81.53
17781;BME280;8498;52.516;13.790;2022-09-24T03:34:11;100825.25;;;12.37;81.08
17781;BME280;8498;52.516;13.790;2022-09-24T03:39:33;100819.81;;;12.38;80.97
17781;BME280;8498;52.516;13.790;2022-09-24T03:44:56;100812.78;;;12.37;81.24
17781;BME280;8498;52.516;13.790;2022-09-24T03:50:19;100807.47;;;12.37;81.54
17781;BME280;8498;52.516;13.790;2022-09-24T03:55:46;100802.13;;;12.37;81.21
17781;BME280;8498;52.516;13.790;2022-09-24T04:01:09;100796.09;;;12.35;81.46
17781;BME280;8498;52.516;13.790;2022-09-24T04:06:33;100794.13;;;12.37;80.95
17781;BME280;8498;52.516;13.790;2022-09-24T04:11:56;100790.03;;;12.33;81.52
17781;BME280;8498;52.516;13.790;2022-09-24T04:17:20;100790.03;;;12.33;81.29
17781;BME280;8498;52.516;13.790;2022-09-24T04:22:42;100803.94;;;12.37;81.03
17781;BME280;8498;52.516;13.790;2022-09-24T04:28:05;100791.03;;;12.43;80.64
17781;BME280;8498;52.516;13.790;2022-09-24T04:33:29;100806.50;;;12.38;80.61
17781;BME280;8498;52.516;13.790;2022-09-24T04:38:51;100801.75;;;12.31;81.19
17781;BME280;8498;52.516;13.790;2022-09-24T04:44:14;100801.41;;;12.35;81.15
17781;BME280;8498;52.516;13.790;2022-09-24T04:49:36;100806.75;;;12.35;81.10
17781;BME280;8498;52.516;13.790;2022-09-24T04:54:59;100796.81;;;12.37;81.02
17781;BME280;8498;52.516;13.790;2022-09-24T05:00:22;100791.38;;;12.39;81.29
17781;BME280;8498;52.516;13.790;2022-09-24T05:05:45;100795.09;;;12.36;81.63
17781;BME280;8498;52.516;13.790;2022-09-24T05:11:07;100788.81;;;12.37;81.68
17781;BME280;8498;52.516;13.790;2022-09-24T05:16:30;100790.28;;;12.41;81.71
17781;BME280;8498;52.516;13.790;2022-09-24T05:21:52;100804.38;;;12.43;81.84
17781;BME280;8498;52.516;13.790;2022-09-24T05:27:15;100795.16;;;12.47;81.71
17781;BME280;8498;52.516;13.790;2022-09-24T05:32:37;100798.56;;;12.49;82.15
17781;BME280;8498;52.516;13.790;2022-09-24T05:38:00;100793.03;;;12.53;82.08
17781;BME280;8498;52.516;13.790;2022-09-24T05:43:23;100796.19;;;12.58;82.06
17781;BME280;8498;52.516;13.790;2022-09-24T05:48:49;100797.66;;;12.62;81.96
17781;BME280;8498;52.516;13.790;2022-09-24T05:54:11;100796.34;;;12.67;81.46
17781;BME280;8498;52.516;13.790;2022-09-24T05:59:34;100791.53;;;12.72;81.69
17781;BME280;8498;52.516;13.790;2022-09-24T06:04:56;100798.09;;;12.79;81.05
17781;BME280;8498;52.516;13.790;2022-09-24T06:10:18;100800.19;;;12.87;80.83
17781;BME280;8498;52.516;13.790;2022-09-24T06:15:40;100801.91;;;12.99;80.45
17781;BME280;8498;52.516;13.790;2022-09-24T06:21:11;100794.41;;;13.04;80.24
17781;BME280;8498;52.516;13.790;2022-09-24T06:26:34;100803.16;;;13.06;79.50
17781;BME280;8498;52.516;13.790;2022-09-24T06:31:57;100809.25;;;13.19;78.84
17781;BME280;8498;52.516;13.790;2022-09-24T06:37:21;100809.06;;;13.34;79.44
17781;BME280;8498;52.516;13.790;2022-09-24T06:42:43;100803.38;;;13.38;77.96
17781;BME280;8498;52.516;13.790;2022-09-24T06:48:06;100813.19;;;13.38;78.15
17781;BME280;8498;52.516;13.790;2022-09-24T06:53:28;100809.06;;;13.45;78.14
17781;BME280;8498;52.516;13.790;2022-09-24T06:58:51;100813.94;;;13.62;77.87
17781;BME280;8498;52.516;13.790;2022-09-24T07:04:13;100818.41;;;13.73;77.47
17781;BME280;8498;52.516;13.790;2022-09-24T07:09:35;100829.47;;;13.79;77.26
17781;BME280;8498;52.516;13.790;2022-09-24T07:15:02;100826.19;;;13.87;77.24
17781;BME280;8498;52.516;13.790;2022-09-24T07:20:25;100833.25;;;13.99;76.53
17781;BME280;8498;52.516;13.790;2022-09-24T07:25:54;100833.81;;;14.14;76.17
17781;BME280;8498;52.516;13.790;2022-09-24T07:31:17;100834.06;;;14.22;76.43
17781;BME280;8498;52.516;13.790;2022-09-24T07:36:40;100836.22;;;14.28;74.61
17781;BME280;8498;52.516;13.790;2022-09-24T07:42:04;100825.75;;;14.36;74.50
17781;BME280;8498;52.516;13.790;2022-09-24T07:47:26;100842.53;;;14.38;74.70
17781;BME280;8498;52.516;13.790;2022-09-24T07:52:49;100836.47;;;14.47;73.72
17781;BME280;8498;52.516;13.790;2022-09-24T07:58:13;100830.88;;;14.50;73.40
17781;BME280;8498;52.516;13.790;2022-09-24T08:03:35;100836.78;;;14.54;73.27
17781;BME280;8498;52.516;13.790;2022-09-24T08:08:58;100846.75;;;14.63;72.28
17781;BME280;8498;52.516;13.790;2022-09-24T08:14:20;100840.03;;;14.68;71.58
17781;BME280;8498;52.516;13.790;2022-09-24T08:19:43;100838.72;;;14.74;72.98
17781;BME280;8498;52.516;13.790;2022-09-24T08:25:08;100842.06;;;14.76;72.13
17781;BME280;8498;52.516;13.790;2022-09-24T08:30:31;100844.22;;;14.93;71.76
17781;BME280;8498;52.516;13.790;2022-09-24T08:35:57;100841.81;;;15.11;71.91
17781;BME280;8498;52.516;13.790;2022-09-24T08:47:01;100846.78;;;15.36;71.29
17781;BME280;8498;52.516;13.790;2022-09-24T08:53:10;100842.91;;;15.50;72.70
17781;BME280;8498;52.516;13.790;2022-09-24T08:58:39;100852.72;;;15.61;71.09
17781;BME280;8498;52.516;13.790;2022-09-24T09:10:01;100847.16;;;16.04;70.47
17781;BME280;8498;52.516;13.790;2022-09-24T09:15:30;100849.66;;;15.96;71.10
17781;BME280;8498;52.516;13.790;2022-09-24T09:20:55;100852.34;;;15.96;70.40
17781;BME280;8498;52.516;13.790;2022-09-24T09:26:24;100855.41;;;15.91;70.04
17781;BME280;8498;52.516;13.790;2022-09-24T09:43:10;100839.91;;;16.35;70.00
17781;BME280;8498;52.516;13.790;2022-09-24T09:48:54;100831.16;;;16.42;68.34
17781;BME280;8498;52.516;13.790;2022-09-24T09:54:17;100841.75;;;16.44;67.07
17781;BME280;8498;52.516;13.790;2022-09-24T09:59:39;100830.06;;;16.55;67.88
17781;BME280;8498;52.516;13.790;2022-09-24T10:05:03;100830.50;;;16.60;66.51
17781;BME280;8498;52.516;13.790;2022-09-24T10:10:27;100828.56;;;16.71;68.06
17781;BME280;8498;52.516;13.790;2022-09-24T10:21:26;100841.69;;;16.94;67.84
17781;BME280;8498;52.516;13.790;2022-09-24T10:26:56;100842.97;;;16.99;65.95
17781;BME280;8498;52.516;13.790;2022-09-24T10:32:22;100834.09;;;16.89;67.07
17781;BME280;8498;52.516;13.790;2022-09-24T10:37:56;100833.09;;;17.00;67.00
17781;BME280;8498;52.516;13.790;2022-09-24T10:43:20;100830.53;;;17.08;67.75
17781;BME280;8498;52.516;13.790;2022-09-24T10:48:47;100828.84;;;17.07;67.78
17781;BME280;8498;52.516;13.790;2022-09-24T11:00:55;100824.75;;;17.22;67.47
17781;BME280;8498;52.516;13.790;2022-09-24T11:23:26;100822.69;;;17.63;65.12
17781;BME280;8498;52.516;13.790;2022-09-24T11:57:35;100816.59;;;17.97;62.89
17781;BME280;8498;52.516;13.790;2022-09-24T12:03:01;100817.25;;;18.37;64.82
17781;BME280;8498;52.516;13.790;2022-09-24T12:08:48;100812.03;;;18.53;62.76
17781;BME280;8498;52.516;13.790;2022-09-24T12:14:16;100813.94;;;18.43;62.98
17781;BME280;8498;52.516;13.790;2022-09-24T12:20:03;100821.59;;;18.38;62.47
17781;BME280;8498;52.516;13.790;2022-09-24T12:25:37;100815.44;;;18.55;64.71
17781;BME280;8498;52.516;13.790;2022-09-24T12:31:11;100810.69;;;18.39;62.75
17781;BME280;8498;52.516;13.790;2022-09-24T12:37:01;100800.97;;;18.56;63.69
17781;BME280;8498;52.516;13.790;2022-09-24T12:42:29;100801.09;;;18.64;63.62
17781;BME280;8498;52.516;13.790;2022-09-24T12:47:57;100801.56;;;18.50;63.99
17781;BME280;8498;52.516;13.790;2022-09-24T12:53:22;100801.91;;;18.47;65.07
17781;BME280;8498;52.516;13.790;2022-09-24T12:58:46;100795.53;;;18.48;65.05
17781;BME280;8498;52.516;13.790;2022-09-24T13:09:38;100804.19;;;18.42;64.89
17781;BME280;8498;52.516;13.790;2022-09-24T13:15:05;100800.28;;;18.54;66.14
17781;BME280;8498;52.516;13.790;2022-09-24T13:20:30;100799.13;;;18.56;66.79
17781;BME280;8498;52.516;13.790;2022-09-24T13:25:57;100797.28;;;18.57;66.95
17781;BME280;8498;52.516;13.790;2022-09-24T13:48:04;100783.44;;;18.52;68.39
17781;BME280;8498;52.516;13.790;2022-09-24T13:53:47;100782.44;;;18.53;67.64
17781;BME280;8498;52.516;13.790;2022-09-24T13:59:11;100783.09;;;18.64;69.08
17781;BME280;8498;52.516;13.790;2022-09-24T14:04:34;100787.94;;;18.61;67.84
17781;BME280;8498;52.516;13.790;2022-09-24T14:10:09;100782.25;;;18.64;68.32
17781;BME280;8498;52.516;13.790;2022-09-24T14:15:34;100782.28;;;18.54;67.31
17781;BME280;8498;52.516;13.790;2022-09-24T14:21:02;100777.50;;;18.58;68.89
17781;BME280;8498;52.516;13.790;2022-09-24T14:26:42;100776.69;;;18.48;68.68
17781;BME280;8498;52.516;13.790;2022-09-24T14:32:27;100775.66;;;18.49;67.98
17781;BME280;8498;52.516;13.790;2022-09-24T14:37:53;100775.75;;;18.57;68.43
17781;BME280;8498;52.516;13.790;2022-09-24T14:54:39;100768.84;;;18.37;69.17
17781;BME280;8498;52.516;13.790;2022-09-24T15:00:17;100768.84;;;18.37;69.60
17781;BME280;8498;52.516;13.790;2022-09-24T15:05:40;100768.84;;;18.37;70.14
17781;BME280;8498;52.516;13.790;2022-09-24T15:11:04;100770.50;;;18.38;70.56
17781;BME280;8498;52.516;13.790;2022-09-24T15:16:29;100772.53;;;18.36;70.97
17781;BME280;8498;52.516;13.790;2022-09-24T15:21:56;100773.66;;;18.33;71.91
17781;BME280;8498;52.516;13.790;2022-09-24T15:27:32;100774.81;;;18.30;72.97
17781;BME280;8498;52.516;13.790;2022-09-24T15:32:54;100769.72;;;18.27;73.79
17781;BME280;8498;52.516;13.790;2022-09-24T15:38:18;100771.34;;;18.20;74.02
17781;BME280;8498;52.516;13.790;2022-09-24T15:43:41;100769.56;;;18.11;74.85
17781;BME280;8498;52.516;13.790;2022-09-24T15:49:03;100764.47;;;18.08;76.28
17781;BME280;8498;52.516;13.790;2022-09-24T15:54:27;100761.69;;;18.00;76.81
17781;BME280;8498;52.516;13.790;2022-09-24T15:59:50;100760.63;;;17.93;77.24
17781;BME280;8498;52.516;13.790;2022-09-24T16:05:13;100762.88;;;17.88;77.16
17781;BME280;8498;52.516;13.790;2022-09-24T16:10:35;100755.81;;;17.87;77.64
17781;BME280;8498;52.516;13.790;2022-09-24T16:15:58;100760.66;;;17.83;77.99
17781;BME280;8498;52.516;13.790;2022-09-24T16:21:26;100768.03;;;17.81;77.57
17781;BME280;8498;52.516;13.790;2022-09-24T16:26:49;100767.78;;;17.75;77.56
17781;BME280;8498;52.516;13.790;2022-09-24T16:32:11;100761.28;;;17.68;77.48
17781;BME280;8498;52.516;13.790;2022-09-24T16:37:35;100770.91;;;17.60;77.80
17781;BME280;8498;52.516;13.790;2022-09-24T16:42:57;100774.63;;;17.50;78.48
17781;BME280;8498;52.516;13.790;2022-09-24T16:48:20;100779.75;;;17.43;79.09
17781;BME280;8498;52.516;13.790;2022-09-24T16:53:42;100775.22;;;17.34;79.35
17781;BME280;8498;52.516;13.790;2022-09-24T16:59:09;100780.94;;;17.21;79.61
17781;BME280;8498;52.516;13.790;2022-09-24T17:04:33;100781.81;;;17.12;80.14
17781;BME280;8498;52.516;13.790;2022-09-24T17:09:55;100779.28;;;17.01;80.26
17781;BME280;8498;52.516;13.790;2022-09-24T17:15:37;100788.31;;;16.91;80.51
17781;BME280;8498;52.516;13.790;2022-09-24T17:21:08;100791.88;;;16.81;81.00
17781;BME280;8498;52.516;13.790;2022-09-24T17:26:32;100793.41;;;16.74;80.94
17781;BME280;8498;52.516;13.790;2022-09-24T17:31:55;100793.84;;;16.70;81.54
17781;BME280;8498;52.516;13.790;2022-09-24T17:37:18;100794.25;;;16.65;81.69
17781;BME280;8498;52.516;13.790;2022-09-24T17:42:40;100792.78;;;16.61;82.06
17781;BME280;8498;52.516;13.790;2022-09-24T17:48:07;100797.91;;;16.64;81.93
17781;BME280;8498;52.516;13.790;2022-09-24T17:53:31;100802.53;;;16.52;82.29
17781;BME280;8498;52.516;13.790;2022-09-24T17:58:54;100806.19;;;16.51;82.23
17781;BME280;8498;52.516;13.790;2022-09-24T18:04:19;100809.84;;;16.41;82.45
17781;BME280;8498;52.516;13.790;2022-09-24T18:09:42;100814.09;;;16.43;82.43
17781;BME280;8498;52.516;13.790;2022-09-24T18:15:07;100811.13;;;16.37;82.39
17781;BME280;8498;52.516;13.790;2022-09-24T18:20:30;100816.75;;;16.34;82.31
17781;BME280;8498;52.516;13.790;2022-09-24T18:25:54;100827.06;;;16.29;82.33
17781;BME280;8498;52.516;13.790;2022-09-24T18:31:19;100819.28;;;16.26;82.42
17781;BME280;8498;52.516;13.790;2022-09-24T18:36:45;100821.38;;;16.22;82.19
17781;BME280;8498;52.516;13.790;2022-09-24T18:42:09;100822.94;;;16.15;82.27
17781;BME280;8498;52.516;13.790;2022-09-24T18:47:35;100818.41;;;16.15;82.12
17781;BME280;8498;52.516;13.790;2022-09-24T18:53:00;100823.31;;;16.10;82.08
17781;BME280;8498;52.516;13.790;2022-09-24T18:58:30;100828.25;;;16.05;82.36
17781;BME280;8498;52.516;13.790;2022-09-24T19:03:54;100833.28;;;15.99;82.53
17781;BME280;8498;52.516;13.790;2022-09-24T19:09:19;100835.16;;;15.98;82.16
17781;BME280;8498;52.516;13.790;2022-09-24T19:14:43;100830.78;;;15.97;81.55
17781;BME280;8498;52.516;13.790;2022-09-24T19:20:07;100834.69;;;15.93;80.92
17781;BME280;8498;52.516;13.790;2022-09-24T19:25:34;100822.53;;;15.89;80.62
17781;BME280;8498;52.516;13.790;2022-09-24T19:31:00;100833.56;;;15.86;80.60
17781;BME280;8498;52.516;13.790;2022-09-24T19:36:24;100824.53;;;15.87;79.74
17781;BME280;8498;52.516;13.790;2022-09-24T19:41:46;100831.13;;;15.83;79.13
17781;BME280;8498;52.516;13.790;2022-09-24T19:47:13;100831.25;;;15.82;79.48
17781;BME280;8498;52.516;13.790;2022-09-24T19:52:37;100830.66;;;15.78;79.12
17781;BME280;8498;52.516;13.790;2022-09-24T19:58:00;100815.16;;;15.72;79.12
17781;BME280;8498;52.516;13.790;2022-09-24T20:03:38;100827.81;;;15.70;79.10
17781;BME280;8498;52.516;13.790;2022-09-24T20:09:15;100831.47;;;15.69;79.01
17781;BME280;8498;52.516;13.790;2022-09-24T20:14:37;100835.44;;;15.65;79.48
17781;BME280;8498;52.516;13.790;2022-09-24T20:20:05;100827.09;;;15.68;79.77
17781;BME280;8498;52.516;13.790;2022-09-24T20:25:28;100826.84;;;15.71;79.50
17781;BME280;8498;52.516;13.790;2022-09-24T20:31:14;100821.31;;;15.63;79.54
17781;BME280;8498;52.516;13.790;2022-09-24T20:36:38;100828.63;;;15.61;79.87
17781;BME280;8498;52.516;13.790;2022-09-24T20:42:01;100824.38;;;15.58;80.19
17781;BME280;8498;52.516;13.790;2022-09-24T20:47:23;100827.22;;;15.57;79.93
17781;BME280;8498;52.516;13.790;2022-09-24T20:52:46;100839.34;;;15.61;79.53
17781;BME280;8498;52.516;13.790;2022-09-24T20:58:08;100829.72;;;15.58;79.59
17781;BME280;8498;52.516;13.790;2022-09-24T21:03:33;100826.78;;;15.61;78.38
17781;BME280;8498;52.516;13.790;2022-09-24T21:09:13;100833.59;;;15.65;77.90
17781;BME280;8498;52.516;13.790;2022-09-24T21:14:35;100834.69;;;15.63;78.64
17781;BME280;8498;52.516;13.790;2022-09-24T21:19:58;100833.97;;;15.61;78.70
17781;BME280;8498;52.516;13.790;2022-09-24T21:25:21;100829.72;;;15.58;77.01
17781;BME280;8498;52.516;13.790;2022-09-24T21:31:05;100833.97;;;15.61;76.58
17781;BME280;8498;52.516;13.790;2022-09-24T21:36:35;100829.47;;;15.61;77.03
17781;BME280;8498;52.516;13.790;2022-09-24T21:42:04;100824.38;;;15.58;77.85
17781;BME280;8498;52.516;13.790;2022-09-24T21:47:27;100824.03;;;15.52;78.21
17781;BME280;8498;52.516;13.790;2022-09-24T21:52:49;100832.06;;;15.52;78.38
17781;BME280;8498;52.516;13.790;2022-09-24T21:58:13;100826.00;;;15.50;77.33
17781;BME280;8498;52.516;13.790;2022-09-24T22:03:36;100816.81;;;15.42;76.07
17781;BME280;8498;52.516;13.790;2022-09-24T22:09:04;100819.69;;;15.30;76.17
17781;BME280;8498;52.516;13.790;2022-09-24T22:14:27;100818.56;;;15.32;76.26
17781;BME280;8498;52.516;13.790;2022-09-24T22:19:49;100819.72;;;15.39;76.03
17781;BME280;8498;52.516;13.790;2022-09-24T22:25:12;100823.25;;;15.40;76.09
17781;BME280;8498;52.516;13.790;2022-09-24T22:30:34;100814.97;;;15.43;75.88
17781;BME280;8498;52.516;13.790;2022-09-24T22:35:56;100818.16;;;15.37;75.79
17781;BME280;8498;52.516;13.790;2022-09-24T22:41:18;100811.56;;;15.41;76.04
17781;BME280;8498;52.516;13.790;2022-09-24T22:46:41;100806.09;;;15.42;76.06
17781;BME280;8498;52.516;13.790;2022-09-24T22:52:03;100796.63;;;15.38;75.66
17781;BME280;8498;52.516;13.790;2022-09-24T22:57:26;100794.59;;;15.31;75.56
17781;BME280;8498;52.516;13.790;2022-09-24T23:02:49;100798.00;;;15.33;76.37
17781;BME280;8498;52.516;13.790;2022-09-24T23:08:11;100800.44;;;15.36;76.83
17781;BME280;8498;52.516;13.790;2022-09-24T23:13:34;100801.41;;;15.35;76.73
17781;BME280;8498;52.516;13.790;2022-09-24T23:18:58;100793.75;;;15.30;76.31
17781;BME280;8498;52.516;13.790;2022-09-24T23:24:21;100784.28;;;15.26;77.54
17781;BME280;8498;52.516;13.790;2022-09-24T23:29:45;100786.72;;;15.29;77.97
17781;BME280;8498;52.516;13.790;2022-09-24T23:35:08;100792.06;;;15.29;78.16
17781;BME280;8498;52.516;13.790;2022-09-24T23:40:30;100788.66;;;15.27;78.62
17781;BME280;8498;52.516;13.790;2022-09-24T23:45:53;100789.19;;;15.21;78.77
17781;BME280;8498;52.516;13.790;2022-09-24T23:51:16;100784.94;;;15.19;78.56
17781;BME280;8498;52.516;13.790;2022-09-24T23:56:38;100781.31;;;15.20;78.00
